createdAt,value
2022-08-25T00:02:03.292Z,19.81
2022-08-25T00:04:33.776Z,19.71
2022-08-25T00:07:04.254Z,19.86
2022-08-25T00:09:33.964Z,19.85
2022-08-25T00:12:01.501Z,19.77
2022-08-25T00:14:33.728Z,19.70
2022-08-25T00:17:00.865Z,19.72
2022-08-25T00:19:31.818Z,19.71
2022-08-25T00:21:59.655Z,19.93
2022-08-25T00:24:33.157Z,19.85
2022-08-25T00:27:04.132Z,19.67
2022-08-25T00:29:31.684Z,19.56
2022-08-25T00:31:59.814Z,19.55
2022-08-25T00:34:30.175Z,19.47
2022-08-25T00:36:56.747Z,19.37
2022-08-25T00:39:25.023Z,19.17
2022-08-25T00:41:56.660Z,19.06
2022-08-25T00:44:26.484Z,19.12
2022-08-25T00:46:55.578Z,19.16
2022-08-25T00:49:30.645Z,19.28
2022-08-25T00:52:29.546Z,19.43
2022-08-25T00:55:16.797Z,19.58
2022-08-25T00:57:48.703Z,19.42
2022-08-25T01:00:45.004Z,19.33
2022-08-25T01:03:12.401Z,19.31
2022-08-25T01:05:41.126Z,19.06
2022-08-25T01:08:09.617Z,19.05
2022-08-25T01:10:39.934Z,19.06
2022-08-25T01:13:22.301Z,19.15
2022-08-25T01:15:53.616Z,19.12
2022-08-25T01:18:22.169Z,19.14
2022-08-25T01:21:00.001Z,19.12
2022-08-25T01:23:29.390Z,19.18
2022-08-25T01:26:04.712Z,19.32
2022-08-25T01:28:31.827Z,19.44
2022-08-25T01:30:58.754Z,19.45
2022-08-25T01:33:26.664Z,19.23
2022-08-25T01:35:55.156Z,18.90
2022-08-25T01:38:23.033Z,18.68
2022-08-25T01:40:49.759Z,18.56
2022-08-25T01:43:24.975Z,18.60
2022-08-25T01:45:52.492Z,18.67
2022-08-25T01:48:19.913Z,18.80
2022-08-25T01:50:46.873Z,18.80
2022-08-25T01:53:26.465Z,18.68
2022-08-25T01:55:54.362Z,18.70
2022-08-25T01:58:24.290Z,18.68
2022-08-25T02:00:54.544Z,18.62
2022-08-25T02:03:21.868Z,18.57
2022-08-25T02:05:48.848Z,18.60
2022-08-25T02:08:15.947Z,18.54
2022-08-25T02:10:42.588Z,18.56
2022-08-25T02:13:10.328Z,18.47
2022-08-25T02:15:47.250Z,18.42
2022-08-25T02:18:14.838Z,18.46
2022-08-25T02:20:41.762Z,18.60
2022-08-25T02:23:08.962Z,18.47
2022-08-25T02:25:38.805Z,18.31
2022-08-25T02:28:07.441Z,18.31
2022-08-25T02:30:34.745Z,18.30
2022-08-25T02:33:01.486Z,18.42
2022-08-25T02:35:29.667Z,18.39
2022-08-25T02:37:56.414Z,18.35
2022-08-25T02:40:23.149Z,18.33
2022-08-25T02:42:51.428Z,18.27
2022-08-25T02:45:18.679Z,18.26
2022-08-25T02:47:46.471Z,18.14
2022-08-25T02:50:13.013Z,18.12
2022-08-25T02:52:41.796Z,18.16
2022-08-25T02:55:14.189Z,18.08
2022-08-25T02:57:42.171Z,18.09
2022-08-25T03:00:12.766Z,18.13
2022-08-25T03:02:41.366Z,18.22
2022-08-25T03:05:09.832Z,18.26
2022-08-25T03:07:38.479Z,18.10
2022-08-25T03:10:14.788Z,18.21
2022-08-25T03:12:41.894Z,18.24
2022-08-25T03:15:16.396Z,18.14
2022-08-25T03:17:47.030Z,18.12
2022-08-25T03:20:14.104Z,17.99
2022-08-25T03:22:43.532Z,18.11
2022-08-25T03:25:29.715Z,17.97
2022-08-25T03:27:57.101Z,17.72
2022-08-25T03:30:26.428Z,17.78
2022-08-25T03:32:53.441Z,17.73
2022-08-25T03:35:21.030Z,17.70
2022-08-25T03:37:48.485Z,17.67
2022-08-25T03:40:17.578Z,17.46
2022-08-25T03:42:45.712Z,17.43
2022-08-25T03:45:14.860Z,17.33
2022-08-25T03:47:42.294Z,17.32
2022-08-25T03:50:11.861Z,17.49
2022-08-25T03:52:42.470Z,17.57
2022-08-25T03:55:12.226Z,17.65
2022-08-25T03:57:40.550Z,17.60
2022-08-25T04:00:09.670Z,17.53
2022-08-25T04:02:36.252Z,17.45
2022-08-25T04:05:03.868Z,17.50
2022-08-25T04:07:30.604Z,17.51
2022-08-25T04:09:57.753Z,17.56
2022-08-25T04:12:25.031Z,17.57
2022-08-25T04:14:55.878Z,17.51
2022-08-25T04:17:23.158Z,17.45
2022-08-25T04:19:50.815Z,17.42
2022-08-25T04:22:20.436Z,17.30
2022-08-25T04:24:47.036Z,17.21
2022-08-25T04:27:16.449Z,17.12
2022-08-25T04:29:43.149Z,17.09
2022-08-25T04:32:10.218Z,17.19
2022-08-25T04:34:37.335Z,17.19
2022-08-25T04:37:06.276Z,17.12
2022-08-25T04:39:33.102Z,17.13
2022-08-25T04:42:01.263Z,17.18
2022-08-25T04:44:33.022Z,17.17
2022-08-25T04:47:00.838Z,17.23
2022-08-25T04:49:28.854Z,17.35
2022-08-25T04:51:57.345Z,17.38
2022-08-25T04:54:24.316Z,17.32
2022-08-25T04:56:54.305Z,17.28
2022-08-25T04:59:27.335Z,17.40
2022-08-25T05:01:58.628Z,17.47
2022-08-25T05:04:29.074Z,17.53
2022-08-25T05:06:56.549Z,17.65
2022-08-25T05:09:23.579Z,17.74
2022-08-25T05:11:51.802Z,17.84
2022-08-25T05:14:21.672Z,17.93
2022-08-25T05:16:54.421Z,18.06
2022-08-25T05:19:21.221Z,18.26
2022-08-25T05:21:48.025Z,18.39
2022-08-25T05:24:14.584Z,18.52
2022-08-25T05:26:41.651Z,18.64
2022-08-25T05:29:10.908Z,18.69
2022-08-25T05:31:42.312Z,18.52
2022-08-25T05:34:09.555Z,18.55
2022-08-25T05:36:36.096Z,18.54
2022-08-25T05:39:04.275Z,18.49
2022-08-25T05:41:31.928Z,18.53
2022-08-25T05:43:59.011Z,18.63
2022-08-25T05:46:26.158Z,18.87
2022-08-25T05:48:54.141Z,19.13
2022-08-25T05:51:20.834Z,19.18
2022-08-25T05:53:49.648Z,19.36
2022-08-25T05:56:17.757Z,19.39
2022-08-25T05:58:44.603Z,19.20
2022-08-25T06:01:38.773Z,19.02
2022-08-25T06:04:06.218Z,18.92
2022-08-25T06:06:32.947Z,18.96
2022-08-25T06:08:59.462Z,19.10
2022-08-25T06:11:26.134Z,19.14
2022-08-25T06:13:52.691Z,19.27
2022-08-25T06:16:19.516Z,19.35
2022-08-25T06:18:46.314Z,19.43
2022-08-25T06:21:14.592Z,19.35
2022-08-25T06:23:41.441Z,19.48
2022-08-25T06:26:13.224Z,19.51
2022-08-25T06:28:47.669Z,19.61
2022-08-25T06:31:14.558Z,19.73
2022-08-25T06:33:41.155Z,19.99
2022-08-25T06:36:08.664Z,20.10
2022-08-25T06:38:35.492Z,21.22
2022-08-25T06:41:07.042Z,22.36
2022-08-25T06:43:34.385Z,23.42
2022-08-25T06:46:12.091Z,23.88
2022-08-25T06:48:39.606Z,24.94
2022-08-25T06:51:08.643Z,25.50
2022-08-25T06:53:38.053Z,25.41
2022-08-25T06:56:06.749Z,25.80
2022-08-25T06:58:33.910Z,26.80
2022-08-25T07:01:07.894Z,26.84
2022-08-25T07:03:41.026Z,26.53
2022-08-25T07:06:08.490Z,25.65
2022-08-25T07:08:37.168Z,25.85
2022-08-25T07:11:16.369Z,25.89
2022-08-25T07:13:44.851Z,25.86
2022-08-25T07:16:11.583Z,26.59
2022-08-25T07:18:38.505Z,28.17
2022-08-25T07:21:05.214Z,29.42
2022-08-25T07:23:35.630Z,28.79
2022-08-25T07:26:36.878Z,28.49
2022-08-25T07:29:08.489Z,27.30
2022-08-25T07:31:35.319Z,27.71
2022-08-25T07:34:20.619Z,28.89
2022-08-25T07:36:47.621Z,30.32
2022-08-25T07:39:14.157Z,29.57
2022-08-25T07:41:42.207Z,30.96
2022-08-25T07:44:11.010Z,30.86
2022-08-25T07:46:38.160Z,29.57
2022-08-25T07:49:16.378Z,30.56
2022-08-25T07:52:04.233Z,28.45
2022-08-25T07:54:33.998Z,29.73
2022-08-25T07:57:02.166Z,29.21
2022-08-25T07:59:29.352Z,30.04
2022-08-25T08:01:56.402Z,31.30
2022-08-25T08:04:23.082Z,32.85
2022-08-25T08:06:49.668Z,34.13
2022-08-25T08:09:16.750Z,34.04
2022-08-25T08:11:54.019Z,32.96
2022-08-25T08:14:21.414Z,33.98
2022-08-25T08:16:48.070Z,34.31
2022-08-25T08:19:15.270Z,34.53
2022-08-25T08:21:42.094Z,34.09
2022-08-25T08:24:24.801Z,33.69
2022-08-25T08:26:59.022Z,35.11
2022-08-25T08:29:26.996Z,35.31
2022-08-25T08:31:53.587Z,32.96
2022-08-25T08:34:20.302Z,33.41
2022-08-25T08:36:52.065Z,33.92
2022-08-25T08:39:18.733Z,31.55
2022-08-25T08:42:16.934Z,32.61
2022-08-25T08:44:47.104Z,32.17
2022-08-25T08:47:17.343Z,31.28
2022-08-25T08:50:10.123Z,30.46
2022-08-25T08:53:02.397Z,31.69
2022-08-25T08:55:36.969Z,33.75
2022-08-25T08:58:09.451Z,32.96
2022-08-25T09:00:51.908Z,31.75
2022-08-25T09:03:39.742Z,31.73
2022-08-25T09:06:20.441Z,31.03
2022-08-25T09:08:47.397Z,32.84
2022-08-25T09:11:53.305Z,34.12
2022-08-25T09:14:53.808Z,35.11
2022-08-25T09:17:54.659Z,31.86
2022-08-25T09:20:45.774Z,33.71
2022-08-25T09:23:22.135Z,34.03
2022-08-25T09:25:59.568Z,32.70
2022-08-25T09:28:38.120Z,30.86
2022-08-25T09:31:35.694Z,30.36
2022-08-25T09:34:05.026Z,30.89
2022-08-25T09:36:37.569Z,30.59
2022-08-25T09:39:06.614Z,29.54
2022-08-25T09:41:42.085Z,29.08
2022-08-25T09:44:20.511Z,29.01
2022-08-25T09:47:05.734Z,29.80
2022-08-25T09:49:38.435Z,29.45
2022-08-25T09:52:38.910Z,29.07
2022-08-25T09:55:08.188Z,29.46
2022-08-25T09:57:43.850Z,29.87
2022-08-25T10:00:19.935Z,29.55
2022-08-25T10:03:15.447Z,29.35
2022-08-25T10:06:43.388Z,30.43
2022-08-25T10:10:41.970Z,31.51
2022-08-25T10:13:43.095Z,30.64
2022-08-25T10:16:24.524Z,31.44
2022-08-25T10:19:25.375Z,33.56
2022-08-25T10:22:53.623Z,32.36
2022-08-25T10:26:13.718Z,30.16
2022-08-25T10:29:52.260Z,29.94
2022-08-25T10:33:07.882Z,30.14
2022-08-25T10:36:37.228Z,28.68
2022-08-25T10:39:55.324Z,29.38
2022-08-25T10:43:41.111Z,29.26
2022-08-25T10:46:46.076Z,27.96
2022-08-25T10:50:18.561Z,28.43
2022-08-25T10:54:20.434Z,29.48
2022-08-25T10:57:13.146Z,29.38
2022-08-25T11:00:16.231Z,29.48
2022-08-25T11:02:54.227Z,29.70
2022-08-25T11:05:26.838Z,30.22
2022-08-25T11:08:06.338Z,30.07
2022-08-25T11:10:45.114Z,29.78
2022-08-25T11:13:39.925Z,29.94
2022-08-25T11:16:18.733Z,30.42
2022-08-25T11:18:51.501Z,30.41
2022-08-25T11:21:43.724Z,30.12
2022-08-25T11:24:28.777Z,30.35
2022-08-25T11:26:56.895Z,30.69
2022-08-25T11:29:31.313Z,30.34
2022-08-25T11:31:59.414Z,29.63
2022-08-25T11:34:30.970Z,29.36
2022-08-25T11:37:11.151Z,28.97
2022-08-25T11:39:52.139Z,28.47
2022-08-25T11:42:27.666Z,28.34
2022-08-25T11:45:09.404Z,28.41
2022-08-25T11:48:13.391Z,28.39
2022-08-25T11:51:03.436Z,28.22
2022-08-25T11:53:35.674Z,28.35
2022-08-25T11:56:32.645Z,28.83
2022-08-25T11:58:59.521Z,28.97
2022-08-25T12:01:32.661Z,29.20
2022-08-25T12:04:33.533Z,29.24
2022-08-25T12:07:06.234Z,29.43
2022-08-25T12:09:55.132Z,28.84
2022-08-25T12:12:38.844Z,29.08
2022-08-25T12:15:21.107Z,29.47
2022-08-25T12:18:40.176Z,29.61
2022-08-25T12:21:15.212Z,30.14
2022-08-25T12:24:09.423Z,29.49
2022-08-25T12:26:42.159Z,29.76
2022-08-25T12:29:42.806Z,30.39
2022-08-25T12:32:33.712Z,30.72
2022-08-25T12:35:32.050Z,30.17
2022-08-25T12:38:15.809Z,29.73
2022-08-25T12:40:42.699Z,29.77
2022-08-25T12:43:26.818Z,29.49
2022-08-25T12:46:14.709Z,29.75
2022-08-25T12:48:55.133Z,29.55
2022-08-25T12:51:23.186Z,29.55
2022-08-25T12:53:51.602Z,29.34
2022-08-25T12:56:41.007Z,29.80
2022-08-25T12:59:19.928Z,29.61
2022-08-25T13:02:07.655Z,29.39
2022-08-25T13:04:59.573Z,29.65
2022-08-25T13:07:58.262Z,28.90
2022-08-25T13:10:52.638Z,28.76
2022-08-25T13:13:46.764Z,28.94
2022-08-25T13:16:20.048Z,29.84
2022-08-25T13:18:51.428Z,30.13
2022-08-25T13:21:21.918Z,29.52
2022-08-25T13:23:54.852Z,29.35
2022-08-25T13:26:35.180Z,29.48
2022-08-25T13:29:14.481Z,29.50
2022-08-25T13:31:58.444Z,30.10
2022-08-25T13:34:34.744Z,30.19
2022-08-25T13:37:31.183Z,29.68
2022-08-25T13:40:25.883Z,29.94
2022-08-25T13:42:59.720Z,29.45
2022-08-25T13:45:31.890Z,29.44
2022-08-25T13:47:59.165Z,29.61
2022-08-25T13:50:26.449Z,29.52
2022-08-25T13:52:55.024Z,29.96
2022-08-25T13:55:27.740Z,29.86
2022-08-25T13:57:58.108Z,29.57
2022-08-25T14:01:22.758Z,29.70
2022-08-25T14:03:56.653Z,30.20
2022-08-25T14:06:28.538Z,30.15
2022-08-25T14:08:58.046Z,30.38
2022-08-25T14:11:31.713Z,30.76
2022-08-25T14:14:03.396Z,31.04
2022-08-25T14:16:39.240Z,31.08
2022-08-25T14:19:19.906Z,31.06
2022-08-25T14:21:47.505Z,30.88
2022-08-25T14:24:23.158Z,30.80
2022-08-25T14:26:54.167Z,31.07
2022-08-25T14:29:22.276Z,30.90
2022-08-25T14:31:49.898Z,30.96
2022-08-25T14:34:19.036Z,31.06
2022-08-25T14:36:48.560Z,30.67
2022-08-25T14:39:15.824Z,30.80
2022-08-25T14:41:46.322Z,30.51
2022-08-25T14:44:20.725Z,30.80
2022-08-25T14:46:56.600Z,31.09
2022-08-25T14:49:29.633Z,31.29
2022-08-25T14:52:00.880Z,31.62
2022-08-25T14:54:29.398Z,31.78
2022-08-25T14:56:57.362Z,31.58
2022-08-25T14:59:24.032Z,31.33
2022-08-25T15:01:50.661Z,31.19
2022-08-25T15:04:26.692Z,31.23
2022-08-25T15:06:59.623Z,31.33
2022-08-25T15:09:33.321Z,31.66
2022-08-25T15:12:00.298Z,31.19
2022-08-25T15:14:28.995Z,31.23
2022-08-25T15:17:01.632Z,31.15
2022-08-25T15:19:29.049Z,31.50
2022-08-25T15:21:58.248Z,31.56
2022-08-25T15:24:27.113Z,31.04
2022-08-25T15:27:03.816Z,30.93
2022-08-25T15:29:34.670Z,30.63
2022-08-25T15:32:07.210Z,30.51
2022-08-25T15:34:35.079Z,30.38
2022-08-25T15:37:11.291Z,30.42
2022-08-25T15:39:41.286Z,30.34
2022-08-25T15:42:09.476Z,29.96
2022-08-25T15:44:39.607Z,30.27
2022-08-25T15:47:06.416Z,30.00
2022-08-25T15:49:33.481Z,29.63
2022-08-25T15:52:02.956Z,29.38
2022-08-25T15:54:30.525Z,29.38
2022-08-25T15:56:57.993Z,29.26
2022-08-25T15:59:27.905Z,29.24
2022-08-25T16:01:54.806Z,29.46
2022-08-25T16:04:23.406Z,29.54
2022-08-25T16:06:50.464Z,29.50
2022-08-25T16:09:23.070Z,29.67
2022-08-25T16:11:56.539Z,29.58
2022-08-25T16:14:24.702Z,29.86
2022-08-25T16:16:52.628Z,29.70
2022-08-25T16:19:19.556Z,29.67
2022-08-25T16:21:47.522Z,29.45
2022-08-25T16:24:15.078Z,29.39
2022-08-25T16:26:48.293Z,29.35
2022-08-25T16:29:16.404Z,29.48
2022-08-25T16:31:53.397Z,29.40
2022-08-25T16:34:28.504Z,29.67
2022-08-25T16:36:57.464Z,29.74
2022-08-25T16:39:25.895Z,29.61
2022-08-25T16:41:52.866Z,29.66
2022-08-25T16:44:22.395Z,29.56
2022-08-25T16:46:54.056Z,29.57
2022-08-25T16:49:21.479Z,29.63
2022-08-25T16:51:52.246Z,29.51
2022-08-25T16:54:43.885Z,29.22
2022-08-25T16:57:10.753Z,29.13
2022-08-25T16:59:37.885Z,29.05
2022-08-25T17:02:06.448Z,29.12
2022-08-25T17:04:33.374Z,29.14
2022-08-25T17:07:00.535Z,29.14
2022-08-25T17:09:29.516Z,29.12
2022-08-25T17:11:57.547Z,29.28
2022-08-25T17:14:27.299Z,29.41
2022-08-25T17:16:57.989Z,29.38
2022-08-25T17:19:27.878Z,29.44
2022-08-25T17:21:55.135Z,29.43
2022-08-25T17:24:22.556Z,29.44
2022-08-25T17:26:58.292Z,29.22
2022-08-25T17:29:25.523Z,29.20
2022-08-25T17:31:53.722Z,29.16
2022-08-25T17:34:23.231Z,29.15
2022-08-25T17:36:58.640Z,29.11
2022-08-25T17:39:27.144Z,29.10
2022-08-25T17:41:56.443Z,28.89
2022-08-25T17:44:23.431Z,28.67
2022-08-25T17:46:50.770Z,28.49
2022-08-25T17:49:18.697Z,28.38
2022-08-25T17:51:45.482Z,28.23
2022-08-25T17:54:15.517Z,28.19
2022-08-25T17:56:42.956Z,28.19
2022-08-25T17:59:10.445Z,28.09
2022-08-25T18:01:40.604Z,28.07
2022-08-25T18:04:07.645Z,27.93
2022-08-25T18:06:44.216Z,27.84
2022-08-25T18:09:11.736Z,27.76
2022-08-25T18:11:38.435Z,27.73
2022-08-25T18:14:05.871Z,27.72
2022-08-25T18:16:50.068Z,27.60
2022-08-25T18:19:35.440Z,27.41
2022-08-25T18:22:06.186Z,27.35
2022-08-25T18:24:35.442Z,27.34
2022-08-25T18:27:02.848Z,27.29
2022-08-25T18:29:30.416Z,27.22
2022-08-25T18:32:06.032Z,27.18
2022-08-25T18:34:36.680Z,27.20
2022-08-25T18:37:23.549Z,27.18
2022-08-25T18:40:09.863Z,27.09
2022-08-25T18:42:42.408Z,27.04
2022-08-25T18:45:12.398Z,27.04
2022-08-25T18:47:43.663Z,26.90
2022-08-25T18:50:16.759Z,26.90
2022-08-25T18:53:04.190Z,26.83
2022-08-25T18:56:21.263Z,26.74
2022-08-25T18:58:57.943Z,26.70
2022-08-25T19:01:26.945Z,26.60
2022-08-25T19:03:57.572Z,26.62
2022-08-25T19:06:24.067Z,26.53
2022-08-25T19:08:55.658Z,26.43
2022-08-25T19:11:25.659Z,26.36
2022-08-25T19:14:00.733Z,26.31
2022-08-25T19:16:40.232Z,26.28
2022-08-25T19:19:13.777Z,26.22
2022-08-25T19:21:59.144Z,26.25
2022-08-25T19:24:32.833Z,26.21
2022-08-25T19:27:27.401Z,26.08
2022-08-25T19:29:54.327Z,25.91
2022-08-25T19:32:35.009Z,25.86
2022-08-25T19:35:07.887Z,25.82
2022-08-25T19:37:39.664Z,25.82
2022-08-25T19:40:09.526Z,25.83
2022-08-25T19:42:42.479Z,25.80
2022-08-25T19:45:24.440Z,25.77
2022-08-25T19:47:54.720Z,25.70
2022-08-25T19:50:21.929Z,25.64
2022-08-25T19:52:56.450Z,25.50
2022-08-25T19:55:24.860Z,25.28
2022-08-25T19:58:00.250Z,25.13
2022-08-25T20:03:45.883Z,25.03
2022-08-25T20:06:21.308Z,25.12
2022-08-25T20:08:58.877Z,25.20
2022-08-25T20:11:33.563Z,25.13
2022-08-25T20:14:04.134Z,25.04
2022-08-25T20:16:35.558Z,24.95
2022-08-25T20:19:02.935Z,24.91
2022-08-25T20:21:34.454Z,24.78
2022-08-25T20:24:22.733Z,24.60
2022-08-25T20:26:54.909Z,24.60
2022-08-25T20:29:24.988Z,24.52
2022-08-25T20:31:51.745Z,24.47
2022-08-25T20:34:18.385Z,24.42
2022-08-25T20:36:50.146Z,24.34
2022-08-25T20:39:28.388Z,24.27
2022-08-25T20:42:06.152Z,24.33
2022-08-25T20:44:59.333Z,24.31
2022-08-25T20:47:26.349Z,24.28
2022-08-25T20:50:12.063Z,24.43
2022-08-25T20:52:43.693Z,24.35
2022-08-25T20:55:11.228Z,24.39
2022-08-25T20:57:38.843Z,24.23
2022-08-25T21:00:06.707Z,24.05
2022-08-25T21:02:33.992Z,24.01
2022-08-25T21:05:01.384Z,23.93
2022-08-25T21:07:28.207Z,23.81
2022-08-25T21:09:56.213Z,23.72
2022-08-25T21:12:23.808Z,23.64
2022-08-25T21:14:51.761Z,23.62
2022-08-25T21:17:19.584Z,23.77
2022-08-25T21:22:19.141Z,23.76
2022-08-25T21:24:45.630Z,23.74
2022-08-25T21:27:12.132Z,23.69
2022-08-25T21:29:44.542Z,23.68
2022-08-25T21:32:17.161Z,23.74
2022-08-25T21:34:43.595Z,23.73
2022-08-25T21:37:10.007Z,23.59
2022-08-25T21:39:36.526Z,23.35
2022-08-25T21:42:03.552Z,23.14
2022-08-25T21:44:30.371Z,23.06
2022-08-25T21:46:57.240Z,22.99
2022-08-25T21:49:24.957Z,22.94
2022-08-25T21:52:00.390Z,22.85
2022-08-25T21:54:28.762Z,22.80
2022-08-25T21:57:01.456Z,22.78
2022-08-25T21:59:34.831Z,22.92
2022-08-25T22:02:04.878Z,23.04
2022-08-25T22:04:32.035Z,23.11
2022-08-25T22:06:59.749Z,23.13
2022-08-25T22:09:28.191Z,23.00
2022-08-25T22:11:55.809Z,22.91
2022-08-25T22:14:23.975Z,22.89
2022-08-25T22:16:52.697Z,22.78
2022-08-25T22:19:22.728Z,22.70
2022-08-25T22:21:49.722Z,22.67
2022-08-25T22:24:17.745Z,22.71
2022-08-25T22:26:47.676Z,22.74
2022-08-25T22:29:23.183Z,22.87
2022-08-25T22:31:53.401Z,22.92
2022-08-25T22:34:19.951Z,22.88
2022-08-25T22:36:59.645Z,22.86
2022-08-25T22:39:27.070Z,22.92
2022-08-25T22:41:53.867Z,23.11
2022-08-25T22:44:20.311Z,22.85
2022-08-25T22:46:46.777Z,22.58
2022-08-25T22:49:13.227Z,22.35
2022-08-25T22:51:40.794Z,22.24
2022-08-25T22:54:09.481Z,22.20
2022-08-25T22:56:37.361Z,22.25
2022-08-25T22:59:07.747Z,22.19
2022-08-25T23:01:35.102Z,22.20
2022-08-25T23:04:03.154Z,22.20
2022-08-25T23:06:30.612Z,22.28
2022-08-25T23:08:58.470Z,22.37
2022-08-25T23:11:25.430Z,22.40
2022-08-25T23:13:56.015Z,22.40
2022-08-25T23:16:23.049Z,22.22
2022-08-25T23:18:49.711Z,22.06
2022-08-25T23:21:41.085Z,21.84
2022-08-25T23:24:11.039Z,21.64
2022-08-25T23:26:42.452Z,21.64
2022-08-25T23:29:18.339Z,21.59
2022-08-25T23:31:47.520Z,21.62
2022-08-25T23:34:15.595Z,21.68
2022-08-25T23:36:42.624Z,21.77
2022-08-25T23:39:09.603Z,21.85
2022-08-25T23:41:36.908Z,21.81
2022-08-25T23:44:05.421Z,21.77
2022-08-25T23:46:34.784Z,21.95
2022-08-25T23:49:03.124Z,22.02
2022-08-25T23:51:37.123Z,22.13
2022-08-25T23:54:05.841Z,21.94
2022-08-25T23:56:34.030Z,21.65
2022-08-25T23:59:03.240Z,21.65
